sensor_id;sensor_type;location;lat;lon;timestamp;P1;durP1;ratioP1;P2;durP2;ratioP2
27796;SDS011;15177;50.844;4.412;2022-08-19T00:01:45;28.67;;;21.35;;
27796;SDS011;15177;50.844;4.412;2022-08-19T00:04:13;31.73;;;23.67;;
27796;SDS011;15177;50.844;4.412;2022-08-19T00:06:41;31.90;;;23.63;;
27796;SDS011;15177;50.844;4.412;2022-08-19T00:09:09;38.22;;;25.30;;
27796;SDS011;15177;50.844;4.412;2022-08-19T00:11:35;35.85;;;27.08;;
27796;SDS011;15177;50.844;4.412;2022-08-19T00:14:02;41.63;;;28.58;;
27796;SDS011;15177;50.844;4.412;2022-08-19T00:16:28;42.80;;;30.20;;
27796;SDS011;15177;50.844;4.412;2022-08-19T00:18:54;39.35;;;29.67;;
27796;SDS011;15177;50.844;4.412;2022-08-19T00:21:21;44.67;;;30.75;;
27796;SDS011;15177;50.844;4.412;2022-08-19T00:23:48;53.83;;;37.08;;
27796;SDS011;15177;50.844;4.412;2022-08-19T00:26:13;65.40;;;40.65;;
27796;SDS011;15177;50.844;4.412;2022-08-19T00:28:39;59.35;;;40.17;;
27796;SDS011;15177;50.844;4.412;2022-08-19T00:31:05;64.15;;;41.20;;
27796;SDS011;15177;50.844;4.412;2022-08-19T00:33:32;68.43;;;43.33;;
27796;SDS011;15177;50.844;4.412;2022-08-19T00:35:59;71.47;;;43.95;;
27796;SDS011;15177;50.844;4.412;2022-08-19T00:38:25;77.55;;;45.55;;
27796;SDS011;15177;50.844;4.412;2022-08-19T00:40:51;79.20;;;46.28;;
27796;SDS011;15177;50.844;4.412;2022-08-19T00:43:21;78.05;;;47.05;;
27796;SDS011;15177;50.844;4.412;2022-08-19T00:45:48;79.88;;;48.58;;
27796;SDS011;15177;50.844;4.412;2022-08-19T00:48:15;84.22;;;52.00;;
27796;SDS011;15177;50.844;4.412;2022-08-19T00:50:41;78.88;;;49.63;;
27796;SDS011;15177;50.844;4.412;2022-08-19T00:53:08;88.00;;;50.92;;
27796;SDS011;15177;50.844;4.412;2022-08-19T00:55:36;93.13;;;51.80;;
27796;SDS011;15177;50.844;4.412;2022-08-19T00:58:05;89.03;;;53.28;;
27796;SDS011;15177;50.844;4.412;2022-08-19T01:00:35;82.50;;;51.45;;
27796;SDS011;15177;50.844;4.412;2022-08-19T01:03:03;83.93;;;50.95;;
27796;SDS011;15177;50.844;4.412;2022-08-19T01:05:34;85.57;;;50.03;;
27796;SDS011;15177;50.844;4.412;2022-08-19T01:08:00;79.13;;;48.80;;
27796;SDS011;15177;50.844;4.412;2022-08-19T01:10:29;85.10;;;50.83;;
27796;SDS011;15177;50.844;4.412;2022-08-19T01:12:58;82.03;;;49.33;;
27796;SDS011;15177;50.844;4.412;2022-08-19T01:15:27;76.13;;;46.88;;
27796;SDS011;15177;50.844;4.412;2022-08-19T01:17:56;72.50;;;45.58;;
27796;SDS011;15177;50.844;4.412;2022-08-19T01:20:24;76.85;;;47.72;;
27796;SDS011;15177;50.844;4.412;2022-08-19T01:22:51;78.38;;;47.83;;
27796;SDS011;15177;50.844;4.412;2022-08-19T01:25:20;72.35;;;45.03;;
27796;SDS011;15177;50.844;4.412;2022-08-19T01:27:51;74.65;;;44.88;;
27796;SDS011;15177;50.844;4.412;2022-08-19T01:30:23;59.28;;;39.63;;
27796;SDS011;15177;50.844;4.412;2022-08-19T01:32:51;61.45;;;38.22;;
27796;SDS011;15177;50.844;4.412;2022-08-19T01:35:18;55.30;;;37.10;;
27796;SDS011;15177;50.844;4.412;2022-08-19T01:37:55;58.60;;;37.95;;
27796;SDS011;15177;50.844;4.412;2022-08-19T01:40:25;55.30;;;37.20;;
27796;SDS011;15177;50.844;4.412;2022-08-19T01:42:53;57.00;;;37.33;;
27796;SDS011;15177;50.844;4.412;2022-08-19T01:45:19;64.68;;;40.00;;
27796;SDS011;15177;50.844;4.412;2022-08-19T01:47:47;56.33;;;35.85;;
27796;SDS011;15177;50.844;4.412;2022-08-19T01:50:13;52.30;;;34.13;;
27796;SDS011;15177;50.844;4.412;2022-08-19T01:52:39;48.00;;;31.20;;
27796;SDS011;15177;50.844;4.412;2022-08-19T01:55:08;42.47;;;29.52;;
27796;SDS011;15177;50.844;4.412;2022-08-19T01:57:36;41.58;;;27.25;;
27796;SDS011;15177;50.844;4.412;2022-08-19T02:00:05;43.83;;;26.83;;
27796;SDS011;15177;50.844;4.412;2022-08-19T02:02:33;34.95;;;24.35;;
27796;SDS011;15177;50.844;4.412;2022-08-19T02:04:59;37.25;;;25.33;;
27796;SDS011;15177;50.844;4.412;2022-08-19T02:07:25;37.88;;;25.20;;
27796;SDS011;15177;50.844;4.412;2022-08-19T02:09:50;39.15;;;25.98;;
27796;SDS011;15177;50.844;4.412;2022-08-19T02:12:16;39.35;;;27.48;;
27796;SDS011;15177;50.844;4.412;2022-08-19T02:14:42;41.30;;;27.77;;
27796;SDS011;15177;50.844;4.412;2022-08-19T02:17:07;38.90;;;27.15;;
27796;SDS011;15177;50.844;4.412;2022-08-19T02:19:33;33.60;;;24.05;;
27796;SDS011;15177;50.844;4.412;2022-08-19T02:21:59;31.52;;;22.15;;
27796;SDS011;15177;50.844;4.412;2022-08-19T02:24:25;33.30;;;22.27;;
27796;SDS011;15177;50.844;4.412;2022-08-19T02:26:51;29.75;;;21.45;;
27796;SDS011;15177;50.844;4.412;2022-08-19T02:29:17;34.63;;;22.52;;
27796;SDS011;15177;50.844;4.412;2022-08-19T02:31:43;33.83;;;22.75;;
27796;SDS011;15177;50.844;4.412;2022-08-19T02:34:08;35.78;;;23.40;;
27796;SDS011;15177;50.844;4.412;2022-08-19T02:36:34;36.95;;;24.25;;
27796;SDS011;15177;50.844;4.412;2022-08-19T02:38:59;38.40;;;26.88;;
27796;SDS011;15177;50.844;4.412;2022-08-19T02:41:29;40.38;;;28.30;;
27796;SDS011;15177;50.844;4.412;2022-08-19T02:43:59;37.53;;;28.10;;
27796;SDS011;15177;50.844;4.412;2022-08-19T02:46:29;38.65;;;27.17;;
27796;SDS011;15177;50.844;4.412;2022-08-19T02:48:58;36.03;;;25.48;;
27796;SDS011;15177;50.844;4.412;2022-08-19T02:51:33;36.88;;;24.33;;
27796;SDS011;15177;50.844;4.412;2022-08-19T02:54:00;38.67;;;25.13;;
27796;SDS011;15177;50.844;4.412;2022-08-19T02:56:27;36.78;;;24.58;;
27796;SDS011;15177;50.844;4.412;2022-08-19T02:58:53;38.88;;;25.15;;
27796;SDS011;15177;50.844;4.412;2022-08-19T03:01:24;40.42;;;24.08;;
27796;SDS011;15177;50.844;4.412;2022-08-19T03:03:55;40.35;;;27.05;;
27796;SDS011;15177;50.844;4.412;2022-08-19T03:06:22;39.75;;;26.75;;
27796;SDS011;15177;50.844;4.412;2022-08-19T03:08:48;35.35;;;24.15;;
27796;SDS011;15177;50.844;4.412;2022-08-19T03:11:25;38.08;;;23.05;;
27796;SDS011;15177;50.844;4.412;2022-08-19T03:13:52;31.73;;;22.00;;
27796;SDS011;15177;50.844;4.412;2022-08-19T03:16:20;31.08;;;19.90;;
27796;SDS011;15177;50.844;4.412;2022-08-19T03:18:47;30.45;;;20.35;;
27796;SDS011;15177;50.844;4.412;2022-08-19T03:21:16;39.22;;;23.60;;
27796;SDS011;15177;50.844;4.412;2022-08-19T03:23:44;38.33;;;25.25;;
27796;SDS011;15177;50.844;4.412;2022-08-19T03:26:10;36.33;;;23.45;;
27796;SDS011;15177;50.844;4.412;2022-08-19T03:28:35;38.70;;;24.65;;
27796;SDS011;15177;50.844;4.412;2022-08-19T03:31:06;43.00;;;24.70;;
27796;SDS011;15177;50.844;4.412;2022-08-19T03:33:35;41.22;;;25.40;;
27796;SDS011;15177;50.844;4.412;2022-08-19T03:36:09;39.65;;;23.38;;
27796;SDS011;15177;50.844;4.412;2022-08-19T03:38:41;37.83;;;24.27;;
27796;SDS011;15177;50.844;4.412;2022-08-19T03:41:10;37.55;;;22.95;;
27796;SDS011;15177;50.844;4.412;2022-08-19T03:43:39;34.97;;;21.00;;
27796;SDS011;15177;50.844;4.412;2022-08-19T03:46:10;38.03;;;22.38;;
27796;SDS011;15177;50.844;4.412;2022-08-19T03:48:38;38.17;;;21.95;;
27796;SDS011;15177;50.844;4.412;2022-08-19T03:51:06;39.17;;;23.15;;
27796;SDS011;15177;50.844;4.412;2022-08-19T03:53:33;38.00;;;22.15;;
27796;SDS011;15177;50.844;4.412;2022-08-19T03:55:59;34.97;;;23.60;;
27796;SDS011;15177;50.844;4.412;2022-08-19T03:58:26;40.42;;;23.75;;
27796;SDS011;15177;50.844;4.412;2022-08-19T04:00:55;42.97;;;25.13;;
27796;SDS011;15177;50.844;4.412;2022-08-19T04:03:22;40.80;;;25.83;;
27796;SDS011;15177;50.844;4.412;2022-08-19T04:05:51;46.95;;;25.05;;
27796;SDS011;15177;50.844;4.412;2022-08-19T04:08:18;38.55;;;25.17;;
27796;SDS011;15177;50.844;4.412;2022-08-19T04:10:47;39.42;;;25.00;;
27796;SDS011;15177;50.844;4.412;2022-08-19T04:13:14;38.70;;;24.13;;
27796;SDS011;15177;50.844;4.412;2022-08-19T04:15:41;39.65;;;24.95;;
27796;SDS011;15177;50.844;4.412;2022-08-19T04:18:08;39.35;;;22.83;;
27796;SDS011;15177;50.844;4.412;2022-08-19T04:20:38;41.90;;;23.55;;
27796;SDS011;15177;50.844;4.412;2022-08-19T04:23:09;43.45;;;23.92;;
27796;SDS011;15177;50.844;4.412;2022-08-19T04:25:39;40.63;;;22.20;;
27796;SDS011;15177;50.844;4.412;2022-08-19T04:28:06;44.25;;;24.90;;
27796;SDS011;15177;50.844;4.412;2022-08-19T04:30:40;36.15;;;22.80;;
27796;SDS011;15177;50.844;4.412;2022-08-19T04:33:09;35.72;;;21.77;;
27796;SDS011;15177;50.844;4.412;2022-08-19T04:35:40;36.00;;;21.27;;
27796;SDS011;15177;50.844;4.412;2022-08-19T04:38:08;35.40;;;21.27;;
27796;SDS011;15177;50.844;4.412;2022-08-19T04:40:43;34.95;;;21.15;;
27796;SDS011;15177;50.844;4.412;2022-08-19T04:43:29;34.45;;;20.38;;
27796;SDS011;15177;50.844;4.412;2022-08-19T04:45:56;35.63;;;19.80;;
27796;SDS011;15177;50.844;4.412;2022-08-19T04:48:22;33.42;;;19.30;;
27796;SDS011;15177;50.844;4.412;2022-08-19T04:50:52;36.15;;;19.10;;
27796;SDS011;15177;50.844;4.412;2022-08-19T04:53:22;32.80;;;19.27;;
27796;SDS011;15177;50.844;4.412;2022-08-19T04:55:59;28.42;;;18.90;;
27796;SDS011;15177;50.844;4.412;2022-08-19T04:58:28;35.33;;;19.23;;
27796;SDS011;15177;50.844;4.412;2022-08-19T05:00:54;32.75;;;18.60;;
27796;SDS011;15177;50.844;4.412;2022-08-19T05:03:20;29.23;;;17.58;;
27796;SDS011;15177;50.844;4.412;2022-08-19T05:05:47;28.73;;;17.58;;
27796;SDS011;15177;50.844;4.412;2022-08-19T05:08:14;29.23;;;17.48;;
27796;SDS011;15177;50.844;4.412;2022-08-19T05:10:45;34.85;;;17.58;;
27796;SDS011;15177;50.844;4.412;2022-08-19T05:13:12;32.15;;;17.77;;
27796;SDS011;15177;50.844;4.412;2022-08-19T05:15:38;30.23;;;15.45;;
27796;SDS011;15177;50.844;4.412;2022-08-19T05:18:04;28.27;;;15.68;;
27796;SDS011;15177;50.844;4.412;2022-08-19T05:20:48;27.48;;;15.23;;
27796;SDS011;15177;50.844;4.412;2022-08-19T05:23:32;28.08;;;16.23;;
27796;SDS011;15177;50.844;4.412;2022-08-19T05:25:58;29.23;;;15.32;;
27796;SDS011;15177;50.844;4.412;2022-08-19T05:28:24;24.77;;;15.15;;
27796;SDS011;15177;50.844;4.412;2022-08-19T05:30:50;27.10;;;15.20;;
27796;SDS011;15177;50.844;4.412;2022-08-19T05:33:17;33.97;;;15.77;;
27796;SDS011;15177;50.844;4.412;2022-08-19T05:35:43;31.88;;;16.20;;
27796;SDS011;15177;50.844;4.412;2022-08-19T05:38:09;26.95;;;15.55;;
27796;SDS011;15177;50.844;4.412;2022-08-19T05:40:36;29.40;;;17.70;;
27796;SDS011;15177;50.844;4.412;2022-08-19T05:43:05;32.50;;;19.20;;
27796;SDS011;15177;50.844;4.412;2022-08-19T05:45:32;29.58;;;17.42;;
27796;SDS011;15177;50.844;4.412;2022-08-19T05:48:02;31.20;;;18.25;;
27796;SDS011;15177;50.844;4.412;2022-08-19T05:50:28;35.95;;;17.08;;
27796;SDS011;15177;50.844;4.412;2022-08-19T05:52:54;32.38;;;16.10;;
27796;SDS011;15177;50.844;4.412;2022-08-19T05:55:20;31.23;;;16.15;;
27796;SDS011;15177;50.844;4.412;2022-08-19T05:57:47;26.67;;;15.75;;
27796;SDS011;15177;50.844;4.412;2022-08-19T06:00:13;28.17;;;15.18;;
27796;SDS011;15177;50.844;4.412;2022-08-19T06:02:40;32.47;;;15.13;;
27796;SDS011;15177;50.844;4.412;2022-08-19T06:05:06;25.08;;;14.50;;
27796;SDS011;15177;50.844;4.412;2022-08-19T06:07:34;23.88;;;12.48;;
27796;SDS011;15177;50.844;4.412;2022-08-19T06:10:02;19.42;;;12.68;;
27796;SDS011;15177;50.844;4.412;2022-08-19T06:12:33;19.15;;;11.77;;
27796;SDS011;15177;50.844;4.412;2022-08-19T06:15:01;22.33;;;12.07;;
27796;SDS011;15177;50.844;4.412;2022-08-19T06:17:38;24.40;;;10.50;;
27796;SDS011;15177;50.844;4.412;2022-08-19T06:20:05;17.00;;;9.85;;
27796;SDS011;15177;50.844;4.412;2022-08-19T06:22:36;14.95;;;9.15;;
27796;SDS011;15177;50.844;4.412;2022-08-19T06:25:03;14.98;;;7.72;;
27796;SDS011;15177;50.844;4.412;2022-08-19T06:27:29;18.70;;;9.38;;
27796;SDS011;15177;50.844;4.412;2022-08-19T06:29:56;17.40;;;9.35;;
27796;SDS011;15177;50.844;4.412;2022-08-19T06:32:22;15.27;;;9.05;;
27796;SDS011;15177;50.844;4.412;2022-08-19T06:34:48;17.15;;;8.70;;
27796;SDS011;15177;50.844;4.412;2022-08-19T06:37:14;16.92;;;8.85;;
27796;SDS011;15177;50.844;4.412;2022-08-19T06:39:40;15.95;;;8.55;;
27796;SDS011;15177;50.844;4.412;2022-08-19T06:42:08;16.30;;;8.07;;
27796;SDS011;15177;50.844;4.412;2022-08-19T06:44:36;17.60;;;8.70;;
27796;SDS011;15177;50.844;4.412;2022-08-19T06:47:04;16.83;;;8.07;;
27796;SDS011;15177;50.844;4.412;2022-08-19T06:49:31;16.05;;;8.93;;
27796;SDS011;15177;50.844;4.412;2022-08-19T06:51:58;17.00;;;8.07;;
27796;SDS011;15177;50.844;4.412;2022-08-19T06:54:25;13.85;;;7.72;;
27796;SDS011;15177;50.844;4.412;2022-08-19T06:56:53;13.10;;;7.85;;
27796;SDS011;15177;50.844;4.412;2022-08-19T06:59:20;14.05;;;7.63;;
27796;SDS011;15177;50.844;4.412;2022-08-19T07:01:51;13.57;;;7.90;;
27796;SDS011;15177;50.844;4.412;2022-08-19T07:04:19;15.68;;;7.25;;
27796;SDS011;15177;50.844;4.412;2022-08-19T07:06:47;14.38;;;7.30;;
27796;SDS011;15177;50.844;4.412;2022-08-19T07:09:14;16.80;;;7.95;;
27796;SDS011;15177;50.844;4.412;2022-08-19T07:11:46;14.73;;;8.77;;
27796;SDS011;15177;50.844;4.412;2022-08-19T07:14:14;18.13;;;8.27;;
27796;SDS011;15177;50.844;4.412;2022-08-19T07:16:42;17.45;;;8.00;;
27796;SDS011;15177;50.844;4.412;2022-08-19T07:19:10;15.05;;;7.63;;
27796;SDS011;15177;50.844;4.412;2022-08-19T07:21:36;18.50;;;8.73;;
27796;SDS011;15177;50.844;4.412;2022-08-19T07:24:02;22.67;;;9.15;;
27796;SDS011;15177;50.844;4.412;2022-08-19T07:26:30;19.05;;;9.88;;
27796;SDS011;15177;50.844;4.412;2022-08-19T07:28:58;15.05;;;7.93;;
27796;SDS011;15177;50.844;4.412;2022-08-19T07:31:25;16.98;;;8.32;;
27796;SDS011;15177;50.844;4.412;2022-08-19T07:33:52;17.27;;;7.45;;
27796;SDS011;15177;50.844;4.412;2022-08-19T07:36:24;14.38;;;8.02;;
27796;SDS011;15177;50.844;4.412;2022-08-19T07:38:57;18.52;;;8.63;;
27796;SDS011;15177;50.844;4.412;2022-08-19T07:41:26;12.93;;;6.88;;
27796;SDS011;15177;50.844;4.412;2022-08-19T07:43:53;11.10;;;7.18;;
27796;SDS011;15177;50.844;4.412;2022-08-19T07:46:19;12.50;;;7.60;;
27796;SDS011;15177;50.844;4.412;2022-08-19T07:48:46;13.45;;;6.85;;
27796;SDS011;15177;50.844;4.412;2022-08-19T07:51:14;12.23;;;6.38;;
27796;SDS011;15177;50.844;4.412;2022-08-19T07:53:46;14.32;;;6.28;;
27796;SDS011;15177;50.844;4.412;2022-08-19T07:56:13;10.40;;;6.40;;
27796;SDS011;15177;50.844;4.412;2022-08-19T07:58:42;10.60;;;6.57;;
27796;SDS011;15177;50.844;4.412;2022-08-19T08:01:11;11.32;;;6.72;;
27796;SDS011;15177;50.844;4.412;2022-08-19T08:03:39;9.73;;;6.05;;
27796;SDS011;15177;50.844;4.412;2022-08-19T08:06:24;11.10;;;5.63;;
27796;SDS011;15177;50.844;4.412;2022-08-19T08:09:08;12.05;;;5.97;;
27796;SDS011;15177;50.844;4.412;2022-08-19T08:11:42;7.70;;;5.45;;
27796;SDS011;15177;50.844;4.412;2022-08-19T08:14:15;10.52;;;6.00;;
27796;SDS011;15177;50.844;4.412;2022-08-19T08:16:43;13.60;;;6.63;;
27796;SDS011;15177;50.844;4.412;2022-08-19T08:19:10;12.68;;;6.47;;
27796;SDS011;15177;50.844;4.412;2022-08-19T08:21:36;14.00;;;6.93;;
27796;SDS011;15177;50.844;4.412;2022-08-19T08:24:02;13.13;;;5.72;;
27796;SDS011;15177;50.844;4.412;2022-08-19T08:26:28;9.65;;;6.38;;
27796;SDS011;15177;50.844;4.412;2022-08-19T08:28:54;9.95;;;5.88;;
27796;SDS011;15177;50.844;4.412;2022-08-19T08:31:19;11.13;;;5.82;;
27796;SDS011;15177;50.844;4.412;2022-08-19T08:33:46;13.05;;;6.05;;
27796;SDS011;15177;50.844;4.412;2022-08-19T08:36:12;11.05;;;5.38;;
27796;SDS011;15177;50.844;4.412;2022-08-19T08:38:41;15.43;;;5.40;;
27796;SDS011;15177;50.844;4.412;2022-08-19T08:44:16;10.40;;;5.95;;
27796;SDS011;15177;50.844;4.412;2022-08-19T08:46:50;10.60;;;6.32;;
27796;SDS011;15177;50.844;4.412;2022-08-19T08:49:31;9.52;;;5.95;;
27796;SDS011;15177;50.844;4.412;2022-08-19T08:52:18;10.13;;;5.97;;
27796;SDS011;15177;50.844;4.412;2022-08-19T08:54:47;10.40;;;5.78;;
27796;SDS011;15177;50.844;4.412;2022-08-19T08:57:24;17.38;;;7.50;;
27796;SDS011;15177;50.844;4.412;2022-08-19T08:59:53;9.73;;;5.80;;
27796;SDS011;15177;50.844;4.412;2022-08-19T09:02:22;11.02;;;6.22;;
27796;SDS011;15177;50.844;4.412;2022-08-19T09:04:47;14.05;;;6.63;;
27796;SDS011;15177;50.844;4.412;2022-08-19T09:10:18;11.82;;;6.35;;
27796;SDS011;15177;50.844;4.412;2022-08-19T09:15:45;12.07;;;6.18;;
27796;SDS011;15177;50.844;4.412;2022-08-19T09:18:21;13.35;;;6.47;;
27796;SDS011;15177;50.844;4.412;2022-08-19T09:20:47;15.55;;;6.53;;
27796;SDS011;15177;50.844;4.412;2022-08-19T09:23:12;12.10;;;5.90;;
27796;SDS011;15177;50.844;4.412;2022-08-19T09:25:38;11.25;;;6.07;;
27796;SDS011;15177;50.844;4.412;2022-08-19T09:28:05;10.82;;;6.93;;
27796;SDS011;15177;50.844;4.412;2022-08-19T09:30:38;9.88;;;5.75;;
27796;SDS011;15177;50.844;4.412;2022-08-19T09:33:06;8.82;;;5.35;;
27796;SDS011;15177;50.844;4.412;2022-08-19T09:35:33;12.90;;;5.32;;
27796;SDS011;15177;50.844;4.412;2022-08-19T09:38:00;9.20;;;5.63;;
27796;SDS011;15177;50.844;4.412;2022-08-19T09:40:29;10.65;;;5.85;;
27796;SDS011;15177;50.844;4.412;2022-08-19T09:42:56;12.10;;;5.85;;
27796;SDS011;15177;50.844;4.412;2022-08-19T09:45:27;11.48;;;5.68;;
27796;SDS011;15177;50.844;4.412;2022-08-19T09:47:54;8.98;;;5.72;;
27796;SDS011;15177;50.844;4.412;2022-08-19T09:50:21;10.82;;;5.15;;
27796;SDS011;15177;50.844;4.412;2022-08-19T09:52:48;10.30;;;5.90;;
27796;SDS011;15177;50.844;4.412;2022-08-19T09:55:13;10.05;;;4.70;;
27796;SDS011;15177;50.844;4.412;2022-08-19T09:57:40;8.77;;;5.05;;
27796;SDS011;15177;50.844;4.412;2022-08-19T10:00:07;9.32;;;5.43;;
27796;SDS011;15177;50.844;4.412;2022-08-19T10:02:34;8.32;;;5.30;;
27796;SDS011;15177;50.844;4.412;2022-08-19T10:05:00;7.25;;;4.53;;
27796;SDS011;15177;50.844;4.412;2022-08-19T10:07:44;7.53;;;4.43;;
27796;SDS011;15177;50.844;4.412;2022-08-19T10:10:10;8.20;;;4.35;;
27796;SDS011;15177;50.844;4.412;2022-08-19T10:12:36;7.93;;;4.85;;
27796;SDS011;15177;50.844;4.412;2022-08-19T10:15:04;5.05;;;3.92;;
27796;SDS011;15177;50.844;4.412;2022-08-19T10:17:31;7.65;;;3.80;;
27796;SDS011;15177;50.844;4.412;2022-08-19T10:19:58;5.15;;;3.95;;
27796;SDS011;15177;50.844;4.412;2022-08-19T10:22:24;8.15;;;4.53;;
27796;SDS011;15177;50.844;4.412;2022-08-19T10:24:50;6.50;;;3.95;;
27796;SDS011;15177;50.844;4.412;2022-08-19T10:27:17;5.78;;;3.55;;
27796;SDS011;15177;50.844;4.412;2022-08-19T10:29:42;5.75;;;4.43;;
27796;SDS011;15177;50.844;4.412;2022-08-19T10:32:08;5.88;;;4.78;;
27796;SDS011;15177;50.844;4.412;2022-08-19T10:34:35;6.15;;;4.72;;
27796;SDS011;15177;50.844;4.412;2022-08-19T10:37:03;5.43;;;4.55;;
27796;SDS011;15177;50.844;4.412;2022-08-19T10:39:33;7.10;;;4.85;;
27796;SDS011;15177;50.844;4.412;2022-08-19T10:42:03;9.25;;;6.05;;
27796;SDS011;15177;50.844;4.412;2022-08-19T10:44:32;8.32;;;6.30;;
27796;SDS011;15177;50.844;4.412;2022-08-19T10:47:00;9.23;;;6.22;;
27796;SDS011;15177;50.844;4.412;2022-08-19T10:49:26;12.40;;;5.95;;
27796;SDS011;15177;50.844;4.412;2022-08-19T10:51:52;8.38;;;6.20;;
27796;SDS011;15177;50.844;4.412;2022-08-19T10:54:36;13.50;;;7.03;;
27796;SDS011;15177;50.844;4.412;2022-08-19T10:57:20;11.30;;;6.68;;
27796;SDS011;15177;50.844;4.412;2022-08-19T10:59:49;9.70;;;6.55;;
27796;SDS011;15177;50.844;4.412;2022-08-19T11:02:14;12.07;;;7.03;;
27796;SDS011;15177;50.844;4.412;2022-08-19T11:04:40;9.63;;;6.55;;
27796;SDS011;15177;50.844;4.412;2022-08-19T11:07:06;8.85;;;6.18;;
27796;SDS011;15177;50.844;4.412;2022-08-19T11:09:36;14.05;;;7.88;;
27796;SDS011;15177;50.844;4.412;2022-08-19T11:12:04;12.55;;;7.43;;
27796;SDS011;15177;50.844;4.412;2022-08-19T11:14:31;11.30;;;7.65;;
27796;SDS011;15177;50.844;4.412;2022-08-19T11:16:58;11.80;;;7.60;;
27796;SDS011;15177;50.844;4.412;2022-08-19T11:19:24;10.38;;;7.22;;
27796;SDS011;15177;50.844;4.412;2022-08-19T11:21:50;12.68;;;7.88;;
27796;SDS011;15177;50.844;4.412;2022-08-19T11:24:22;10.75;;;7.22;;
27796;SDS011;15177;50.844;4.412;2022-08-19T11:26:50;10.18;;;6.28;;
27796;SDS011;15177;50.844;4.412;2022-08-19T11:29:20;10.13;;;6.18;;
27796;SDS011;15177;50.844;4.412;2022-08-19T11:31:47;12.00;;;6.60;;
27796;SDS011;15177;50.844;4.412;2022-08-19T11:34:15;14.77;;;8.27;;
27796;SDS011;15177;50.844;4.412;2022-08-19T11:36:44;11.05;;;8.07;;
27796;SDS011;15177;50.844;4.412;2022-08-19T11:39:12;15.40;;;10.35;;
27796;SDS011;15177;50.844;4.412;2022-08-19T11:41:40;15.32;;;9.32;;
27796;SDS011;15177;50.844;4.412;2022-08-19T11:44:07;14.98;;;9.60;;
27796;SDS011;15177;50.844;4.412;2022-08-19T11:46:33;17.90;;;9.63;;
27796;SDS011;15177;50.844;4.412;2022-08-19T11:49:00;12.10;;;9.13;;
27796;SDS011;15177;50.844;4.412;2022-08-19T11:51:28;12.73;;;9.63;;
27796;SDS011;15177;50.844;4.412;2022-08-19T11:53:57;15.23;;;9.70;;
27796;SDS011;15177;50.844;4.412;2022-08-19T11:56:23;14.38;;;9.05;;
27796;SDS011;15177;50.844;4.412;2022-08-19T11:58:52;12.25;;;8.63;;
27796;SDS011;15177;50.844;4.412;2022-08-19T12:01:19;11.20;;;8.40;;
27796;SDS011;15177;50.844;4.412;2022-08-19T12:03:47;13.90;;;8.00;;
27796;SDS011;15177;50.844;4.412;2022-08-19T12:06:15;9.10;;;7.15;;
27796;SDS011;15177;50.844;4.412;2022-08-19T12:08:44;15.20;;;7.05;;
27796;SDS011;15177;50.844;4.412;2022-08-19T12:11:11;9.65;;;6.28;;
27796;SDS011;15177;50.844;4.412;2022-08-19T12:13:38;11.38;;;6.90;;
27796;SDS011;15177;50.844;4.412;2022-08-19T12:16:11;10.82;;;6.53;;
27796;SDS011;15177;50.844;4.412;2022-08-19T12:18:39;8.07;;;5.50;;
27796;SDS011;15177;50.844;4.412;2022-08-19T12:21:14;9.88;;;5.93;;
27796;SDS011;15177;50.844;4.412;2022-08-19T12:23:42;7.60;;;4.75;;
27796;SDS011;15177;50.844;4.412;2022-08-19T12:26:10;8.40;;;5.60;;
27796;SDS011;15177;50.844;4.412;2022-08-19T12:28:36;9.52;;;5.68;;
27796;SDS011;15177;50.844;4.412;2022-08-19T12:31:02;9.32;;;5.60;;
27796;SDS011;15177;50.844;4.412;2022-08-19T12:33:28;7.75;;;5.32;;
27796;SDS011;15177;50.844;4.412;2022-08-19T12:35:54;5.85;;;4.53;;
27796;SDS011;15177;50.844;4.412;2022-08-19T12:38:24;12.27;;;4.75;;
27796;SDS011;15177;50.844;4.412;2022-08-19T12:40:50;7.82;;;3.92;;
27796;SDS011;15177;50.844;4.412;2022-08-19T12:43:17;6.70;;;4.70;;
27796;SDS011;15177;50.844;4.412;2022-08-19T12:45:44;5.32;;;4.30;;
27796;SDS011;15177;50.844;4.412;2022-08-19T12:48:10;9.85;;;3.50;;
27796;SDS011;15177;50.844;4.412;2022-08-19T12:50:39;7.35;;;3.25;;
27796;SDS011;15177;50.844;4.412;2022-08-19T12:53:05;3.65;;;2.92;;
27796;SDS011;15177;50.844;4.412;2022-08-19T12:55:31;5.55;;;2.60;;
27796;SDS011;15177;50.844;4.412;2022-08-19T12:57:56;3.97;;;2.70;;
27796;SDS011;15177;50.844;4.412;2022-08-19T13:00:22;4.28;;;2.65;;
27796;SDS011;15177;50.844;4.412;2022-08-19T13:02:49;4.68;;;2.38;;
27796;SDS011;15177;50.844;4.412;2022-08-19T13:05:18;4.38;;;2.58;;
27796;SDS011;15177;50.844;4.412;2022-08-19T13:07:47;5.40;;;2.83;;
27796;SDS011;15177;50.844;4.412;2022-08-19T13:10:14;4.82;;;2.28;;
27796;SDS011;15177;50.844;4.412;2022-08-19T13:12:42;7.82;;;2.95;;
27796;SDS011;15177;50.844;4.412;2022-08-19T13:15:09;5.88;;;3.00;;
27796;SDS011;15177;50.844;4.412;2022-08-19T13:17:36;8.70;;;2.88;;
27796;SDS011;15177;50.844;4.412;2022-08-19T13:20:03;6.68;;;2.50;;
27796;SDS011;15177;50.844;4.412;2022-08-19T13:22:30;7.07;;;2.75;;
27796;SDS011;15177;50.844;4.412;2022-08-19T13:24:56;2.67;;;2.00;;
27796;SDS011;15177;50.844;4.412;2022-08-19T13:27:22;3.67;;;2.15;;
27796;SDS011;15177;50.844;4.412;2022-08-19T13:29:47;4.43;;;1.90;;
27796;SDS011;15177;50.844;4.412;2022-08-19T13:32:32;3.88;;;1.60;;
27796;SDS011;15177;50.844;4.412;2022-08-19T13:35:16;3.42;;;2.15;;
27796;SDS011;15177;50.844;4.412;2022-08-19T13:37:41;6.30;;;2.60;;
27796;SDS011;15177;50.844;4.412;2022-08-19T13:40:08;6.43;;;2.22;;
27796;SDS011;15177;50.844;4.412;2022-08-19T13:42:43;6.03;;;1.75;;
27796;SDS011;15177;50.844;4.412;2022-08-19T13:45:11;6.47;;;2.33;;
27796;SDS011;15177;50.844;4.412;2022-08-19T13:47:37;3.67;;;1.92;;
27796;SDS011;15177;50.844;4.412;2022-08-19T13:50:12;3.03;;;1.95;;
27796;SDS011;15177;50.844;4.412;2022-08-19T13:52:40;4.43;;;1.92;;
27796;SDS011;15177;50.844;4.412;2022-08-19T13:55:07;2.85;;;1.60;;
27796;SDS011;15177;50.844;4.412;2022-08-19T13:57:36;3.08;;;1.95;;
27796;SDS011;15177;50.844;4.412;2022-08-19T14:00:04;4.03;;;1.90;;
27796;SDS011;15177;50.844;4.412;2022-08-19T14:02:35;2.38;;;2.03;;
27796;SDS011;15177;50.844;4.412;2022-08-19T14:05:02;4.75;;;2.00;;
27796;SDS011;15177;50.844;4.412;2022-08-19T14:07:29;4.65;;;1.88;;
27796;SDS011;15177;50.844;4.412;2022-08-19T14:09:55;7.97;;;1.90;;
27796;SDS011;15177;50.844;4.412;2022-08-19T14:12:21;6.10;;;1.50;;
27796;SDS011;15177;50.844;4.412;2022-08-19T14:14:48;3.70;;;1.65;;
27796;SDS011;15177;50.844;4.412;2022-08-19T14:17:14;5.18;;;2.13;;
27796;SDS011;15177;50.844;4.412;2022-08-19T14:19:40;4.07;;;2.25;;
27796;SDS011;15177;50.844;4.412;2022-08-19T14:22:06;7.13;;;2.17;;
27796;SDS011;15177;50.844;4.412;2022-08-19T14:24:32;4.05;;;2.08;;
27796;SDS011;15177;50.844;4.412;2022-08-19T14:26:58;3.65;;;2.42;;
27796;SDS011;15177;50.844;4.412;2022-08-19T14:29:24;5.38;;;2.10;;
27796;SDS011;15177;50.844;4.412;2022-08-19T14:31:50;4.07;;;2.50;;
27796;SDS011;15177;50.844;4.412;2022-08-19T14:34:16;5.63;;;2.47;;
27796;SDS011;15177;50.844;4.412;2022-08-19T14:36:41;3.70;;;2.20;;
27796;SDS011;15177;50.844;4.412;2022-08-19T14:39:08;4.97;;;2.42;;
27796;SDS011;15177;50.844;4.412;2022-08-19T14:41:34;3.45;;;2.35;;
27796;SDS011;15177;50.844;4.412;2022-08-19T14:44:00;4.38;;;1.70;;
27796;SDS011;15177;50.844;4.412;2022-08-19T14:46:26;2.55;;;1.40;;
27796;SDS011;15177;50.844;4.412;2022-08-19T14:48:53;3.05;;;1.52;;